createdAt,value
2022-10-04T00:00:55.190Z,8.62
2022-10-04T00:03:58.173Z,8.63
2022-10-04T00:06:56.194Z,8.62
2022-10-04T00:09:33.432Z,8.61
2022-10-04T00:12:40.192Z,8.60
2022-10-04T00:15:36.206Z,8.61
2022-10-04T00:18:51.215Z,8.60
2022-10-04T00:22:02.196Z,8.58
2022-10-04T00:24:37.314Z,8.56
2022-10-04T00:27:28.210Z,8.56
2022-10-04T00:30:17.207Z,8.55
2022-10-04T00:33:15.212Z,8.54
2022-10-04T00:36:02.188Z,8.52
2022-10-04T00:38:42.226Z,8.51
2022-10-04T00:41:30.222Z,8.53
2022-10-04T00:44:05.267Z,8.53
2022-10-04T00:46:55.209Z,8.51
2022-10-04T00:49:32.265Z,8.52
2022-10-04T00:52:26.227Z,8.52
2022-10-04T00:55:13.203Z,8.53
2022-10-04T00:58:06.237Z,8.53
2022-10-04T01:00:41.333Z,8.53
2022-10-04T01:03:37.218Z,8.52
2022-10-04T01:06:14.338Z,8.52
2022-10-04T01:09:07.209Z,8.49
2022-10-04T01:11:57.341Z,8.47
2022-10-04T01:15:15.221Z,8.45
2022-10-04T01:18:09.447Z,8.41
2022-10-04T01:21:03.208Z,8.36
2022-10-04T01:23:47.263Z,8.34
2022-10-04T01:26:41.232Z,8.33
2022-10-04T01:29:35.213Z,8.31
2022-10-04T01:32:08.302Z,8.30
2022-10-04T01:34:55.224Z,8.29
2022-10-04T01:37:28.356Z,8.27
2022-10-04T01:40:16.230Z,8.27
2022-10-04T01:42:56.281Z,8.26
2022-10-04T01:46:03.279Z,8.25
2022-10-04T01:48:49.237Z,8.24
2022-10-04T01:51:57.255Z,8.24
2022-10-04T01:54:52.240Z,8.23
2022-10-04T01:57:40.252Z,8.23
2022-10-04T02:00:36.224Z,8.19
2022-10-04T02:03:34.289Z,8.20
2022-10-04T02:06:11.307Z,8.19
2022-10-04T02:09:04.232Z,8.20
2022-10-04T02:11:46.262Z,8.19
2022-10-04T02:14:46.234Z,8.18
2022-10-04T02:17:44.282Z,8.18
2022-10-04T02:20:40.253Z,8.18
2022-10-04T02:23:29.260Z,8.19
2022-10-04T02:26:02.328Z,8.20
2022-10-04T02:28:49.281Z,8.20
2022-10-04T02:31:47.015Z,8.22
2022-10-04T02:34:33.259Z,8.24
2022-10-04T02:37:09.349Z,8.25
2022-10-04T02:40:13.248Z,8.26
2022-10-04T02:43:06.331Z,8.25
2022-10-04T02:46:00.256Z,8.24
2022-10-04T02:48:46.276Z,8.23
2022-10-04T02:51:41.448Z,8.23
2022-10-04T02:54:33.717Z,8.22
2022-10-04T02:57:26.310Z,8.20
2022-10-04T03:00:23.254Z,8.19
2022-10-04T03:03:31.279Z,8.18
2022-10-04T03:06:19.243Z,8.15
2022-10-04T03:09:17.293Z,8.13
2022-10-04T03:12:11.265Z,8.10
2022-10-04T03:15:08.240Z,8.07
2022-10-04T03:17:56.260Z,8.07
2022-10-04T03:20:29.338Z,8.08
2022-10-04T03:23:18.290Z,8.07
2022-10-04T03:26:06.280Z,8.07
2022-10-04T03:29:00.298Z,8.08
2022-10-04T03:31:50.318Z,8.08
2022-10-04T03:34:27.405Z,8.09
2022-10-04T03:37:21.287Z,8.09
2022-10-04T03:40:07.269Z,8.09
2022-10-04T03:43:01.297Z,8.10
2022-10-04T03:45:48.326Z,8.10
2022-10-04T03:48:31.307Z,8.10
2022-10-04T03:51:25.306Z,8.11
2022-10-04T03:54:09.300Z,8.12
2022-10-04T03:57:05.291Z,8.12
2022-10-04T04:00:07.313Z,8.12
2022-10-04T04:03:11.289Z,8.13
2022-10-04T04:06:04.285Z,8.15
2022-10-04T04:08:43.396Z,8.16
2022-10-04T04:11:33.298Z,8.18
2022-10-04T04:14:17.306Z,8.16
2022-10-04T04:17:33.304Z,8.18
2022-10-04T04:20:10.376Z,8.19
2022-10-04T04:23:05.303Z,8.21
2022-10-04T04:25:50.285Z,8.22
2022-10-04T04:28:52.300Z,8.22
2022-10-04T04:31:52.339Z,8.18
2022-10-04T04:34:31.441Z,8.18
2022-10-04T04:37:18.313Z,8.14
2022-10-04T04:39:57.916Z,8.12
2022-10-04T04:42:44.330Z,8.11
2022-10-04T04:45:33.461Z,8.09
2022-10-04T04:48:23.315Z,8.07
2022-10-04T04:51:08.323Z,8.05
2022-10-04T04:53:56.334Z,8.03
2022-10-04T04:56:34.400Z,8.01
2022-10-04T04:59:22.322Z,7.99
2022-10-04T05:01:55.486Z,7.98
2022-10-04T05:04:42.305Z,7.98
2022-10-04T05:07:23.416Z,7.93
2022-10-04T05:10:39.294Z,7.89
2022-10-04T05:13:20.360Z,7.87
2022-10-04T05:16:08.343Z,7.88
2022-10-04T05:18:41.423Z,7.87
2022-10-04T05:21:33.323Z,7.88
2022-10-04T05:24:19.396Z,7.88
2022-10-04T05:27:10.321Z,7.88
2022-10-04T05:29:50.789Z,7.88
2022-10-04T05:32:46.339Z,7.88
2022-10-04T05:35:28.446Z,7.90
2022-10-04T05:38:42.328Z,7.93
2022-10-04T05:41:34.397Z,7.94
2022-10-04T05:44:52.355Z,7.95
2022-10-04T05:47:35.353Z,7.95
2022-10-04T05:50:43.351Z,7.97
2022-10-04T05:53:40.349Z,8.00
2022-10-04T05:56:27.411Z,8.01
2022-10-04T05:59:29.343Z,8.01
2022-10-04T06:02:15.382Z,8.04
2022-10-04T06:05:06.349Z,8.07
2022-10-04T06:07:45.476Z,8.11
2022-10-04T06:10:59.366Z,8.14
2022-10-04T06:14:20.420Z,8.19
2022-10-04T06:17:29.366Z,8.20
2022-10-04T06:20:37.418Z,8.21
2022-10-04T06:23:25.358Z,8.24
2022-10-04T06:26:14.372Z,8.22
2022-10-04T06:29:17.376Z,8.24
2022-10-04T06:32:00.456Z,8.25
2022-10-04T06:34:59.336Z,8.26
2022-10-04T06:38:31.392Z,8.28
2022-10-04T06:41:50.332Z,8.32
2022-10-04T06:44:46.431Z,8.35
2022-10-04T06:48:02.355Z,8.37
2022-10-04T06:51:01.364Z,8.42
2022-10-04T06:53:47.356Z,8.43
2022-10-04T06:57:16.375Z,8.46
2022-10-04T07:00:18.353Z,8.48
2022-10-04T07:03:23.392Z,8.51
2022-10-04T07:06:12.384Z,8.55
2022-10-04T07:09:01.520Z,8.56
2022-10-04T07:11:56.505Z,8.60
2022-10-04T07:14:40.438Z,8.62
2022-10-04T07:17:39.422Z,8.63
2022-10-04T07:20:14.420Z,8.65
2022-10-04T07:23:12.382Z,8.65
2022-10-04T07:26:01.453Z,8.64
2022-10-04T07:29:09.402Z,8.65
2022-10-04T07:31:50.395Z,8.64
2022-10-04T07:34:41.379Z,8.64
2022-10-04T07:37:19.497Z,8.66
2022-10-04T07:40:25.374Z,8.65
2022-10-04T07:43:16.390Z,8.68
2022-10-04T07:46:25.440Z,8.70
2022-10-04T07:49:20.384Z,8.70
2022-10-04T07:52:11.443Z,8.73
2022-10-04T07:55:03.421Z,8.75
2022-10-04T07:58:07.213Z,8.75
2022-10-04T08:01:30.441Z,8.78
2022-10-04T08:04:36.402Z,8.78
2022-10-04T08:07:27.402Z,8.77
2022-10-04T08:11:02.395Z,8.78
2022-10-04T08:13:59.409Z,8.80
2022-10-04T08:16:43.639Z,8.78
2022-10-04T08:19:39.406Z,8.77
2022-10-04T08:22:27.532Z,8.76
2022-10-04T08:25:32.404Z,8.76
2022-10-04T08:28:39.415Z,8.75
2022-10-04T08:31:45.411Z,8.76
2022-10-04T08:34:51.413Z,8.79
2022-10-04T08:37:53.813Z,8.80
2022-10-04T08:41:07.434Z,8.79
2022-10-04T08:44:03.417Z,8.81
2022-10-04T08:47:58.411Z,8.85
2022-10-04T08:51:37.419Z,8.86
2022-10-04T08:55:08.425Z,8.87
2022-10-04T08:58:08.410Z,8.86
2022-10-04T09:01:10.466Z,8.87
2022-10-04T09:04:41.409Z,8.85
2022-10-04T09:08:11.421Z,8.85
2022-10-04T09:10:57.429Z,8.87
2022-10-04T09:13:51.425Z,8.88
2022-10-04T09:16:38.428Z,8.90
2022-10-04T09:20:04.870Z,8.91
2022-10-04T09:23:11.511Z,8.92
2022-10-04T09:26:35.423Z,8.94
2022-10-04T09:29:11.493Z,8.95
2022-10-04T09:32:23.452Z,8.96
2022-10-04T09:35:01.433Z,8.98
2022-10-04T09:37:54.448Z,8.99
2022-10-04T09:41:02.023Z,9.01
2022-10-04T09:44:25.431Z,9.02
2022-10-04T09:47:10.639Z,9.04
2022-10-04T09:50:24.448Z,9.06
2022-10-04T09:53:38.457Z,9.09
2022-10-04T09:56:46.798Z,9.13
2022-10-04T10:00:25.478Z,9.19
2022-10-04T10:03:23.700Z,9.21
2022-10-04T10:06:10.443Z,9.24
2022-10-04T10:09:51.446Z,9.26
2022-10-04T10:13:03.439Z,9.27
2022-10-04T10:16:06.485Z,9.30
2022-10-04T10:19:30.467Z,9.29
2022-10-04T10:22:48.452Z,9.32
2022-10-04T10:26:11.469Z,9.33
2022-10-04T10:29:04.432Z,9.32
2022-10-04T10:31:57.530Z,9.33
2022-10-04T10:35:21.451Z,9.33
2022-10-04T10:38:04.410Z,9.33
2022-10-04T10:40:51.447Z,9.33
2022-10-04T10:43:53.475Z,9.31
2022-10-04T10:47:05.467Z,9.32
2022-10-04T10:49:55.466Z,9.33
2022-10-04T10:52:46.493Z,9.36
2022-10-04T10:56:05.453Z,9.41
2022-10-04T10:59:12.494Z,9.46
2022-10-04T11:02:25.635Z,9.49
2022-10-04T11:05:55.471Z,9.52
2022-10-04T11:08:41.475Z,9.54
2022-10-04T11:11:53.483Z,9.53
2022-10-04T11:14:35.621Z,9.53
2022-10-04T11:17:42.474Z,9.53
2022-10-04T11:20:28.560Z,9.54
2022-10-04T11:23:52.499Z,9.55
2022-10-04T11:27:07.465Z,9.54
2022-10-04T11:30:29.486Z,9.54
2022-10-04T11:33:50.477Z,9.56
2022-10-04T11:36:35.563Z,9.54
2022-10-04T11:40:10.493Z,9.55
2022-10-04T11:43:20.492Z,9.56
2022-10-04T11:46:25.498Z,9.56
2022-10-04T11:49:12.502Z,9.57
2022-10-04T11:52:02.096Z,9.60
2022-10-04T11:55:24.501Z,9.61
2022-10-04T11:58:28.499Z,9.62
2022-10-04T12:01:25.495Z,9.67
2022-10-04T12:04:54.526Z,9.68
2022-10-04T12:08:09.538Z,9.70
2022-10-04T12:10:47.580Z,9.73
2022-10-04T12:13:46.482Z,9.74
2022-10-04T12:16:50.023Z,9.75
2022-10-04T12:19:46.483Z,9.77
2022-10-04T12:22:49.523Z,9.78
2022-10-04T12:26:00.496Z,9.81
2022-10-04T12:29:29.544Z,9.84
2022-10-04T12:32:24.672Z,9.87
2022-10-04T12:35:42.527Z,9.90
2022-10-04T12:38:49.822Z,9.91
2022-10-04T12:41:42.528Z,9.95
2022-10-04T12:44:40.930Z,9.96
2022-10-04T12:47:58.520Z,9.96
2022-10-04T12:51:00.590Z,9.97
2022-10-04T12:54:13.555Z,9.98
2022-10-04T12:57:08.588Z,9.97
2022-10-04T12:59:55.509Z,9.96
2022-10-04T13:02:41.547Z,9.96
2022-10-04T13:06:02.534Z,9.93
2022-10-04T13:09:04.527Z,9.92
2022-10-04T13:12:11.529Z,9.91
2022-10-04T13:15:19.526Z,9.91
2022-10-04T13:18:17.526Z,9.91
2022-10-04T13:21:07.528Z,9.92
2022-10-04T13:23:59.530Z,9.93
2022-10-04T13:27:06.557Z,9.94
2022-10-04T13:30:12.554Z,9.94
2022-10-04T13:33:08.547Z,9.94
2022-10-04T13:35:56.527Z,9.94
2022-10-04T13:39:10.549Z,9.91
2022-10-04T13:42:12.444Z,9.90
2022-10-04T13:45:01.564Z,9.91
2022-10-04T13:48:13.146Z,9.91
2022-10-04T13:51:32.550Z,9.92
2022-10-04T13:55:06.548Z,9.93
2022-10-04T13:58:04.545Z,9.92
2022-10-04T14:00:57.591Z,9.91
2022-10-04T14:03:39.683Z,9.91
2022-10-04T14:06:43.571Z,9.91
2022-10-04T14:09:36.834Z,9.91
2022-10-04T14:12:41.578Z,9.91
2022-10-04T14:15:28.701Z,9.91
2022-10-04T14:18:23.469Z,9.89
2022-10-04T14:21:19.232Z,9.88
2022-10-04T14:24:53.580Z,9.86
2022-10-04T14:27:43.568Z,9.83
2022-10-04T14:30:52.545Z,9.82
2022-10-04T14:33:39.558Z,9.79
2022-10-04T14:36:52.587Z,9.78
2022-10-04T14:40:21.558Z,9.78
2022-10-04T14:43:27.564Z,9.76
2022-10-04T14:46:13.210Z,9.76
2022-10-04T14:49:16.568Z,9.73
2022-10-04T14:51:53.978Z,9.72
2022-10-04T14:55:13.584Z,9.71
2022-10-04T14:57:52.668Z,9.70
2022-10-04T15:01:10.598Z,9.69
2022-10-04T15:04:17.695Z,9.67
2022-10-04T15:07:10.588Z,9.66
2022-10-04T15:10:18.569Z,9.67
2022-10-04T15:13:16.647Z,9.66
2022-10-04T15:16:40.574Z,9.62
2022-10-04T15:19:28.652Z,9.61
2022-10-04T15:22:29.599Z,9.59
2022-10-04T15:25:03.446Z,9.57
2022-10-04T15:28:00.647Z,9.56
2022-10-04T15:30:43.784Z,9.54
2022-10-04T15:33:33.597Z,9.52
2022-10-04T15:36:38.612Z,9.47
2022-10-04T15:39:45.595Z,9.44
2022-10-04T15:42:39.598Z,9.42
2022-10-04T15:45:21.671Z,9.36
2022-10-04T15:48:17.597Z,9.33
2022-10-04T15:51:11.162Z,9.28
2022-10-04T15:54:22.612Z,9.24
2022-10-04T15:57:02.672Z,9.19
2022-10-04T16:00:00.584Z,9.16
2022-10-04T16:03:21.744Z,9.14
2022-10-04T16:06:32.607Z,9.06
2022-10-04T16:09:33.609Z,9.01
2022-10-04T16:12:42.611Z,8.97
2022-10-04T16:15:44.627Z,8.89
2022-10-04T16:18:36.827Z,8.82
2022-10-04T16:21:26.614Z,8.76
2022-10-04T16:24:28.968Z,8.73
2022-10-04T16:27:29.604Z,8.68
2022-10-04T16:30:27.004Z,8.58
2022-10-04T16:33:33.710Z,8.52
2022-10-04T16:36:22.702Z,8.45
2022-10-04T16:39:29.617Z,8.37
2022-10-04T16:42:19.641Z,8.33
2022-10-04T16:45:38.713Z,8.30
2022-10-04T16:48:38.786Z,8.27
2022-10-04T16:51:25.629Z,8.24
2022-10-04T16:54:28.625Z,8.22
2022-10-04T16:57:20.642Z,8.14
2022-10-04T17:00:00.765Z,8.11
2022-10-04T17:03:21.636Z,8.05
2022-10-04T17:06:26.644Z,8.01
2022-10-04T17:09:35.656Z,7.93
2022-10-04T17:12:43.621Z,7.85
2022-10-04T17:15:44.688Z,7.79
2022-10-04T17:18:42.633Z,7.76
2022-10-04T17:21:48.637Z,7.73
2022-10-04T17:25:01.639Z,7.67
2022-10-04T17:28:03.706Z,7.59
2022-10-04T17:31:32.720Z,7.53
2022-10-04T17:34:34.671Z,7.47
2022-10-04T17:37:22.743Z,7.46
2022-10-04T17:40:18.705Z,7.43
2022-10-04T17:43:22.785Z,7.38
2022-10-04T17:46:35.705Z,7.31
2022-10-04T17:49:40.679Z,7.26
2022-10-04T17:53:08.655Z,7.21
2022-10-04T17:55:55.814Z,7.15
2022-10-04T17:59:05.631Z,7.13
2022-10-04T18:01:44.821Z,7.09
2022-10-04T18:04:36.652Z,7.03
2022-10-04T18:07:30.667Z,7.00
2022-10-04T18:10:36.703Z,6.94
2022-10-04T18:14:08.720Z,6.92
2022-10-04T18:17:08.702Z,6.86
2022-10-04T18:20:03.665Z,6.80
2022-10-04T18:23:02.690Z,6.75
2022-10-04T18:25:56.679Z,6.75
2022-10-04T18:28:43.682Z,6.69
2022-10-04T18:31:37.875Z,6.67
2022-10-04T18:34:34.680Z,6.61
2022-10-04T18:37:34.869Z,6.57
2022-10-04T18:40:34.658Z,6.52
2022-10-04T18:43:07.743Z,6.45
2022-10-04T18:46:08.762Z,6.43
2022-10-04T18:48:47.464Z,6.41
2022-10-04T18:51:48.694Z,6.38
2022-10-04T18:54:45.486Z,6.37
2022-10-04T18:58:07.682Z,6.31
2022-10-04T19:01:14.710Z,6.33
2022-10-04T19:04:09.682Z,6.31
2022-10-04T19:06:51.678Z,6.25
2022-10-04T19:10:03.683Z,6.21
2022-10-04T19:13:05.699Z,6.20
2022-10-04T19:16:08.804Z,6.19
2022-10-04T19:19:02.751Z,6.17
2022-10-04T19:21:48.683Z,6.12
2022-10-04T19:25:10.714Z,6.14
2022-10-04T19:28:20.779Z,6.16
2022-10-04T19:31:18.847Z,6.17
2022-10-04T19:34:21.699Z,6.13
2022-10-04T19:36:59.769Z,6.09
2022-10-04T19:39:54.683Z,6.11
2022-10-04T19:43:09.692Z,6.09
2022-10-04T19:46:21.703Z,6.15
2022-10-04T19:49:09.724Z,6.16
2022-10-04T19:51:51.269Z,6.20
2022-10-04T19:54:45.718Z,6.23
2022-10-04T19:57:28.726Z,6.26
2022-10-04T20:00:26.695Z,6.31
2022-10-04T20:03:24.725Z,6.33
2022-10-04T20:06:19.725Z,6.35
2022-10-04T20:09:28.708Z,6.38
2022-10-04T20:12:08.764Z,6.39
2022-10-04T20:15:02.727Z,6.38
2022-10-04T20:17:51.718Z,6.33
2022-10-04T20:20:57.840Z,6.30
2022-10-04T20:23:56.497Z,6.31
2022-10-04T20:27:12.746Z,6.30
2022-10-04T20:29:45.949Z,6.30
2022-10-04T20:32:43.743Z,6.27
2022-10-04T20:35:25.747Z,6.26
2022-10-04T20:38:31.267Z,6.22
2022-10-04T20:41:11.724Z,6.20
2022-10-04T20:44:07.735Z,6.16
2022-10-04T20:46:47.256Z,6.12
2022-10-04T20:49:34.721Z,6.11
2022-10-04T20:52:07.805Z,6.09
2022-10-04T20:55:01.758Z,6.03
2022-10-04T20:57:40.605Z,5.99
2022-10-04T21:00:29.739Z,5.98
2022-10-04T21:03:27.733Z,5.97
2022-10-04T21:06:16.725Z,5.95
2022-10-04T21:08:56.750Z,5.92
2022-10-04T21:11:58.780Z,5.92
2022-10-04T21:14:45.742Z,5.91
2022-10-04T21:17:37.261Z,5.90
2022-10-04T21:20:56.723Z,5.87
2022-10-04T21:23:44.758Z,5.88
2022-10-04T21:26:31.735Z,5.85
2022-10-04T21:29:04.821Z,5.83
2022-10-04T21:31:51.793Z,5.83
2022-10-04T21:34:51.951Z,5.81
2022-10-04T21:37:46.752Z,5.78
2022-10-04T21:40:33.733Z,5.75
2022-10-04T21:43:06.867Z,5.69
2022-10-04T21:45:54.179Z,5.64
2022-10-04T21:48:34.756Z,5.62
2022-10-04T21:51:21.751Z,5.58
2022-10-04T21:53:57.806Z,5.52
2022-10-04T21:56:44.925Z,5.48
2022-10-04T21:59:18.815Z,5.41
2022-10-04T22:02:05.786Z,5.37
2022-10-04T22:04:38.827Z,5.31
2022-10-04T22:07:25.754Z,5.28
2022-10-04T22:10:05.784Z,5.21
2022-10-04T22:12:52.751Z,5.14
2022-10-04T22:15:32.769Z,5.11
2022-10-04T22:18:26.758Z,5.08
2022-10-04T22:21:13.770Z,5.03
2022-10-04T22:23:48.857Z,5.02
2022-10-04T22:26:35.752Z,4.97
2022-10-04T22:29:08.863Z,4.95
2022-10-04T22:31:57.802Z,4.92
2022-10-04T22:34:30.842Z,4.99
2022-10-04T22:37:18.762Z,5.05
2022-10-04T22:39:52.148Z,5.11
2022-10-04T22:42:38.757Z,5.12
2022-10-04T22:45:42.808Z,5.08
2022-10-04T22:48:36.783Z,5.00
2022-10-04T22:51:23.753Z,4.93
2022-10-04T22:53:56.843Z,4.96
2022-10-04T22:56:44.140Z,4.98
2022-10-04T22:59:26.786Z,4.98
2022-10-04T23:02:20.796Z,4.97
2022-10-04T23:05:05.811Z,4.94
2022-10-04T23:08:00.785Z,4.90
2022-10-04T23:10:47.787Z,4.87
2022-10-04T23:13:24.573Z,4.81
2022-10-04T23:16:24.816Z,4.81
2022-10-04T23:19:06.866Z,4.82
2022-10-04T23:21:55.781Z,4.85
2022-10-04T23:24:29.850Z,4.87
2022-10-04T23:27:22.815Z,4.86
2022-10-04T23:30:03.367Z,4.82
2022-10-04T23:32:51.818Z,4.80
2022-10-04T23:35:36.803Z,4.81
2022-10-04T23:38:33.797Z,4.82
2022-10-04T23:41:20.811Z,4.78
2022-10-04T23:43:55.865Z,4.72
2022-10-04T23:46:42.994Z,4.68
2022-10-04T23:49:23.572Z,4.66
2022-10-04T23:52:10.807Z,4.65
2022-10-04T23:54:43.858Z,4.62
2022-10-04T23:57:32.792Z,4.62
